Time;durP1;ratioP1;P1;durP2;ratioP2;P2;SDS_P1;SDS_P2;PMS_P1;PMS_P2;Temp;Humidity;BMP_temperature;BMP_pressure;BME280_temperature;BME280_humidity;BME280_pressure;Samples;Min_cycle;Max_cycle;Signal;HPM_P1;HPM_P2
2023/08/18 00:01:34;;;;;;;5.72;3.15;;;;;;;23.29;85.97;100165.78;10341788;28;20135;-49
2023/08/18 00:06:36;;;;;;;3.28;2.47;;;;;;;23.28;87.39;100152.41;10340472;28;20065;-48
2023/08/18 00:11:37;;;;;;;2.75;2.20;;;;;;;23.25;86.81;100148.22;10340586;28;20084;-48
2023/08/18 00:16:39;;;;;;;2.53;2.33;;;;;;;23.24;86.81;100149.28;10325541;28;20088;-48
2023/08/18 00:21:40;;;;;;;4.18;2.70;;;;;;;23.24;87.35;100146.56;10335872;28;20049;-48
2023/08/18 00:26:42;;;;;;;2.78;2.58;;;;;;;23.19;86.49;100138.19;10341209;28;20053;-48
2023/08/18 00:31:43;;;;;;;2.55;2.35;;;;;;;23.12;87.86;100153.69;10338329;28;20631;-49
2023/08/18 00:36:45;;;;;;;3.75;2.70;;;;;;;23.09;87.03;100135.06;10341280;28;20045;-47
2023/08/18 00:41:46;;;;;;;3.28;3.08;;;;;;;23.05;89.11;100142.78;10334243;28;20128;-47
2023/08/18 00:46:48;;;;;;;3.38;3.00;;;;;;;23.06;87.31;100141.72;10337667;28;20053;-48
2023/08/18 00:51:50;;;;;;;4.18;2.30;;;;;;;23.01;89.25;100149.66;10332848;28;20068;-48
2023/08/18 00:56:52;;;;;;;3.80;3.03;;;;;;;23.01;88.75;100151.53;10335961;28;20053;-49
2023/08/18 01:01:54;;;;;;;4.53;2.63;;;;;;;23.01;88.02;100143.41;10338888;28;20534;-48
2023/08/18 01:06:56;;;;;;;3.78;2.42;;;;;;;22.91;90.22;100141.94;10340880;28;20133;-53
2023/08/18 01:12:28;;;;;;;4.87;3.13;;;;;;;22.90;90.11;100140.25;10339020;28;20065;-48
2023/08/18 01:17:43;;;;;;;3.50;3.05;;;;;;;22.92;88.76;100135.47;10323203;28;21063;-48
2023/08/18 01:22:52;;;;;;;3.58;2.92;;;;;;;22.86;89.79;100121.88;10339779;28;20499;-48
2023/08/18 01:27:56;;;;;;;3.05;2.70;;;;;;;22.85;90.17;100125.63;10342706;28;20099;-48
2023/08/18 01:33:08;;;;;;;3.00;2.72;;;;;;;22.76;90.74;100125.00;10346479;28;20046;-48
2023/08/18 01:38:11;;;;;;;2.80;2.60;;;;;;;22.76;91.15;100122.31;10339315;28;20053;-48
2023/08/18 01:43:13;;;;;;;3.92;2.65;;;;;;;22.80;92.38;100126.25;10343982;28;20087;-48
2023/08/18 01:48:14;;;;;;;2.33;2.13;;;;;;;22.71;89.65;100113.94;10345659;28;20693;-48
2023/08/18 01:53:16;;;;;;;2.78;2.58;;;;;;;22.54;89.52;100119.75;10345207;28;20622;-48
2023/08/18 01:58:17;;;;;;;3.28;2.83;;;;;;;22.53;90.90;100112.66;10339602;28;20084;-48
2023/08/18 02:03:18;;;;;;;4.10;3.00;;;;;;;22.56;90.04;100101.41;10348561;28;20115;-49
2023/08/18 02:08:21;;;;;;;3.78;3.38;;;;;;;22.51;91.93;100098.47;10346781;28;20083;-48
2023/08/18 02:13:22;;;;;;;6.50;2.83;;;;;;;22.52;91.97;100083.88;10345352;28;20053;-48
2023/08/18 02:18:24;;;;;;;3.25;3.05;;;;;;;22.51;91.98;100086.78;10341306;28;20056;-49
2023/08/18 02:23:25;;;;;;;4.07;3.20;;;;;;;22.50;91.61;100090.53;10330090;28;20120;-48
2023/08/18 02:28:27;;;;;;;4.43;3.03;;;;;;;22.50;91.14;100083.22;10346864;28;20056;-48
2023/08/18 02:33:29;;;;;;;3.10;2.75;;;;;;;22.46;91.86;100081.97;10344078;28;20054;-47
2023/08/18 02:38:33;;;;;;;3.30;3.00;;;;;;;22.41;92.90;100073.63;10342532;28;20049;-47
2023/08/18 02:43:35;;;;;;;2.90;2.70;;;;;;;22.44;93.51;100094.06;10339156;28;20053;-48
2023/08/18 02:48:36;;;;;;;3.38;3.08;;;;;;;22.34;91.58;100080.88;10339730;28;20353;-48
2023/08/18 02:53:37;;;;;;;4.00;3.22;;;;;;;22.28;93.02;100082.53;10328175;28;20053;-48
2023/08/18 02:58:39;;;;;;;3.85;3.42;;;;;;;22.21;92.79;100087.91;10336433;28;20054;-48
2023/08/18 03:03:43;;;;;;;4.20;3.58;;;;;;;22.22;93.02;100077.94;10341271;28;20514;-47
2023/08/18 03:08:44;;;;;;;3.60;3.28;;;;;;;22.23;92.19;100079.59;10329252;28;20155;-48
2023/08/18 03:13:46;;;;;;;3.65;3.20;;;;;;;22.17;92.78;100074.97;10342051;28;20057;-47
2023/08/18 03:18:47;;;;;;;3.63;3.03;;;;;;;22.08;91.66;100085.16;10339476;28;20104;-47
2023/08/18 03:23:48;;;;;;;3.78;3.40;;;;;;;22.00;93.47;100079.94;10340282;28;20701;-49
2023/08/18 03:28:52;;;;;;;4.05;3.08;;;;;;;21.93;95.78;100085.31;10341881;28;20886;-50
2023/08/18 03:33:54;;;;;;;4.22;3.78;;;;;;;21.99;92.92;100080.97;10338998;28;20180;-48
2023/08/18 03:38:56;;;;;;;3.72;3.15;;;;;;;22.00;94.32;100079.94;10339629;28;20052;-48
2023/08/18 03:43:58;;;;;;;4.35;3.60;;;;;;;21.95;94.10;100077.84;10342077;28;20772;-48
2023/08/18 03:49:00;;;;;;;3.67;3.15;;;;;;;21.87;93.45;100073.44;10324011;28;20184;-48
2023/08/18 03:54:01;;;;;;;4.35;3.85;;;;;;;21.93;93.19;100084.50;10320824;28;20093;-47
2023/08/18 03:59:03;;;;;;;6.10;4.50;;;;;;;21.92;92.73;100093.66;10340450;28;20751;-48
2023/08/18 04:04:05;;;;;;;4.30;3.88;;;;;;;21.89;93.27;100101.16;10339173;28;20213;-47
2023/08/18 04:09:13;;;;;;;4.07;3.78;;;;;;;21.91;92.82;100092.00;10333736;28;20058;-48
2023/08/18 04:14:16;;;;;;;5.53;4.40;;;;;;;21.84;93.70;100095.53;10338719;28;20272;-48
2023/08/18 04:19:17;;;;;;;4.72;3.30;;;;;;;21.83;94.99;100093.84;10338886;28;20756;-49
2023/08/18 04:24:19;;;;;;;4.07;3.60;;;;;;;21.81;94.47;100103.19;10337887;28;20057;-48
2023/08/18 04:29:21;;;;;;;5.13;3.35;;;;;;;21.79;94.40;100102.56;10338831;28;20814;-48
2023/08/18 04:34:22;;;;;;;4.82;4.10;;;;;;;21.75;92.55;100102.13;10339539;28;20239;-48
2023/08/18 04:39:24;;;;;;;5.05;4.65;;;;;;;21.70;94.26;100118.16;10341459;28;20053;-48
2023/08/18 04:44:26;;;;;;;5.32;4.05;;;;;;;21.72;93.17;100116.06;10336222;28;20046;-48
2023/08/18 04:49:27;;;;;;;4.60;4.20;;;;;;;21.71;93.16;100125.25;10336993;28;20527;-48
2023/08/18 04:54:28;;;;;;;4.68;4.05;;;;;;;21.64;94.38;100129.78;10323443;28;20178;-48
2023/08/18 04:59:30;;;;;;;4.40;4.00;;;;;;;21.64;94.48;100124.38;10336142;28;20714;-48
2023/08/18 05:04:31;;;;;;;4.43;3.85;;;;;;;21.68;93.32;100120.22;10341992;28;20056;-48
2023/08/18 05:09:34;;;;;;;4.00;3.70;;;;;;;21.65;91.89;100131.47;10337609;28;20053;-55
2023/08/18 05:14:35;;;;;;;4.03;3.73;;;;;;;21.66;92.52;100131.25;10327322;28;20057;-55
2023/08/18 05:19:37;;;;;;;4.07;3.67;;;;;;;21.65;91.83;100123.34;10332231;28;20334;-55
2023/08/18 05:24:39;;;;;;;4.40;3.30;;;;;;;21.65;91.76;100120.63;10342324;28;20068;-55
2023/08/18 05:29:40;;;;;;;4.22;3.78;;;;;;;21.62;91.75;100119.16;10336716;28;20481;-55
2023/08/18 05:34:42;;;;;;;5.90;4.65;;;;;;;21.64;91.75;100129.78;10336796;28;20073;-54
2023/08/18 05:39:43;;;;;;;3.78;3.30;;;;;;;21.65;91.60;100131.47;10334674;28;20137;-55
2023/08/18 05:44:45;;;;;;;4.40;3.15;;;;;;;21.65;91.42;100131.47;10334721;28;20079;-55
2023/08/18 05:49:46;;;;;;;4.70;3.55;;;;;;;21.60;91.98;100121.19;10325600;28;20112;-56
2023/08/18 05:54:48;;;;;;;3.42;3.13;;;;;;;21.75;90.70;100136.50;10324893;28;20597;-55
2023/08/18 05:59:50;;;;;;;4.53;4.07;;;;;;;21.70;91.14;100127.09;10340003;28;20206;-55
2023/08/18 06:04:52;;;;;;;3.63;3.22;;;;;;;21.81;92.14;100133.84;10340512;28;21191;-55
2023/08/18 06:09:53;;;;;;;7.78;4.50;;;;;;;21.98;91.92;100156.03;10321457;28;20053;-56
2023/08/18 06:14:55;;;;;;;4.45;3.40;;;;;;;22.07;91.37;100162.13;10335998;28;20696;-56
2023/08/18 06:19:57;;;;;;;8.50;4.05;;;;;;;22.08;89.97;100152.94;10330133;28;20054;-56
2023/08/18 06:24:59;;;;;;;4.05;3.22;;;;;;;22.23;88.48;100156.34;10334490;28;20148;-55
2023/08/18 06:30:01;;;;;;;4.68;3.50;;;;;;;22.30;88.31;100144.69;10335940;28;20473;-56
2023/08/18 06:35:03;;;;;;;4.28;2.85;;;;;;;22.48;86.26;100163.97;10336959;28;20069;-55
2023/08/18 06:40:05;;;;;;;6.47;3.90;;;;;;;22.60;86.56;100166.91;10335872;28;20053;-56
2023/08/18 06:45:07;;;;;;;4.05;3.40;;;;;;;22.73;86.34;100163.41;10339110;28;20042;-56
2023/08/18 06:50:09;;;;;;;5.03;3.10;;;;;;;22.89;84.97;100170.31;10335663;28;20963;-56
2023/08/18 06:55:14;;;;;;;4.13;2.67;;;;;;;22.98;83.89;100162.81;10337784;28;20056;-57
2023/08/18 07:00:22;;;;;;;3.33;2.90;;;;;;;23.01;83.86;100155.06;10316942;28;20125;-61
2023/08/18 07:05:25;;;;;;;3.33;2.78;;;;;;;23.17;82.87;100167.44;10333038;28;20054;-57
2023/08/18 07:10:27;;;;;;;5.03;3.38;;;;;;;23.36;82.62;100175.78;10315438;28;20080;-56
2023/08/18 07:15:29;;;;;;;3.13;2.83;;;;;;;23.45;81.85;100174.56;10328116;28;20046;-56
2023/08/18 07:20:31;;;;;;;3.35;3.05;;;;;;;23.51;81.26;100175.56;10323577;28;20049;-56
2023/08/18 07:25:33;;;;;;;4.20;3.13;;;;;;;23.65;81.00;100172.63;10327600;28;20608;-56
2023/08/18 07:30:36;;;;;;;4.03;3.05;;;;;;;23.74;80.18;100162.38;10332739;28;20574;-57
2023/08/18 07:35:38;;;;;;;5.97;3.03;;;;;;;23.94;79.22;100172.41;10328622;28;20079;-55
2023/08/18 07:40:41;;;;;;;2.97;2.75;;;;;;;24.04;79.70;100182.84;10328735;28;20120;-55
2023/08/18 07:45:43;;;;;;;3.30;3.00;;;;;;;24.22;79.26;100182.97;10314972;28;20049;-55
2023/08/18 07:50:45;;;;;;;2.78;2.58;;;;;;;24.41;78.43;100185.81;10326435;28;20059;-55
2023/08/18 07:55:46;;;;;;;3.65;2.58;;;;;;;24.61;77.59;100183.88;10330152;28;20053;-56
2023/08/18 08:00:48;;;;;;;3.97;2.78;;;;;;;24.66;74.81;100189.47;10313574;28;20426;-56
2023/08/18 08:05:50;;;;;;;3.47;2.85;;;;;;;24.74;73.04;100182.09;10328922;28;20093;-59
2023/08/18 08:10:51;;;;;;;2.45;2.25;;;;;;;24.89;73.30;100185.34;10330678;28;20493;-56
2023/08/18 08:15:53;;;;;;;3.53;3.22;;;;;;;24.97;70.68;100187.81;10329200;28;20074;-56
2023/08/18 08:20:54;;;;;;;3.78;2.65;;;;;;;25.10;72.01;100186.06;10290166;28;20065;-55
2023/08/18 08:25:56;;;;;;;4.25;2.58;;;;;;;25.19;71.31;100174.69;10329404;28;20102;-56
2023/08/18 08:30:57;;;;;;;3.72;2.88;;;;;;;25.48;70.76;100187.88;10328054;28;20468;-56
2023/08/18 08:35:58;;;;;;;3.63;3.17;;;;;;;25.62;68.42;100186.69;10330100;28;20053;-56
2023/08/18 08:41:00;;;;;;;3.53;2.90;;;;;;;25.68;69.43;100193.97;10336054;28;20061;-56
2023/08/18 08:46:02;;;;;;;4.50;2.77;;;;;;;25.83;68.70;100184.59;10325313;28;20057;-55
2023/08/18 08:51:09;;;;;;;5.00;3.30;;;;;;;26.04;67.82;100175.19;10333452;28;20079;-55
2023/08/18 08:56:14;;;;;;;3.25;2.60;;;;;;;26.17;67.38;100171.47;10331531;28;20060;-56
2023/08/18 09:01:16;;;;;;;6.13;3.42;;;;;;;26.24;65.52;100172.19;10336530;28;20173;-54
2023/08/18 09:06:17;;;;;;;4.43;3.00;;;;;;;26.31;65.48;100158.47;10340826;28;20057;-57
2023/08/18 09:11:42;;;;;;;6.30;2.40;;;;;;;26.59;65.05;100172.38;10322006;28;20543;-56
2023/08/18 09:16:44;;;;;;;4.22;2.50;;;;;;;26.76;63.41;100175.28;10332411;28;20912;-54
2023/08/18 09:21:46;;;;;;;2.80;2.05;;;;;;;26.95;63.25;100169.78;10318236;28;20152;-55
2023/08/18 09:26:48;;;;;;;6.33;3.10;;;;;;;26.98;61.86;100164.69;10335765;28;20072;-56
2023/08/18 09:31:50;;;;;;;4.07;2.50;;;;;;;27.11;62.11;100158.19;10333549;28;20050;-55
2023/08/18 09:36:54;;;;;;;4.07;2.80;;;;;;;27.35;59.65;100158.22;10337560;28;21576;-55
2023/08/18 09:41:56;;;;;;;5.00;2.75;;;;;;;27.59;59.51;100152.75;10334573;28;20695;-56
2023/08/18 09:46:59;;;;;;;6.07;2.17;;;;;;;27.78;60.08;100146.06;10319073;28;20430;-56
2023/08/18 09:52:06;;;;;;;3.05;2.10;;;;;;;28.07;58.15;100148.91;10320523;28;20053;-54
2023/08/18 09:57:16;;;;;;;3.03;2.40;;;;;;;28.27;55.35;100147.66;10336666;28;20122;-57
2023/08/18 10:02:22;;;;;;;5.72;2.17;;;;;;;28.31;57.07;100141.44;10320217;28;20057;-55
2023/08/18 10:07:26;;;;;;;6.15;2.67;;;;;;;28.62;56.01;100146.72;10340781;28;20049;-57
2023/08/18 10:12:27;;;;;;;6.88;2.88;;;;;;;28.89;56.54;100139.53;10321209;28;20046;-55
2023/08/18 10:17:29;;;;;;;2.90;2.47;;;;;;;29.09;55.08;100139.03;10336920;28;21253;-55
2023/08/18 10:22:34;;;;;;;2.45;1.77;;;;;;;29.29;53.18;100129.50;10316545;28;21051;-54
2023/08/18 10:27:40;;;;;;;3.33;2.28;;;;;;;29.45;53.46;100133.28;10332187;28;20057;-55
2023/08/18 10:32:42;;;;;;;3.30;2.15;;;;;;;29.82;52.02;100129.19;10333422;28;20056;-55
2023/08/18 10:37:44;;;;;;;4.15;2.30;;;;;;;30.01;50.08;100121.44;10330510;28;20057;-54
2023/08/18 10:42:45;;;;;;;4.20;2.33;;;;;;;30.08;50.58;100117.41;10316534;28;20097;-54
2023/08/18 10:47:47;;;;;;;3.08;2.17;;;;;;;30.21;50.68;100102.47;10334993;28;20140;-54
2023/08/18 10:52:52;;;;;;;4.25;2.78;;;;;;;30.44;48.64;100100.56;10327106;28;20716;-54
2023/08/18 10:57:53;;;;;;;3.08;2.05;;;;;;;30.67;49.14;100096.63;10326852;28;20229;-56
2023/08/18 11:02:55;;;;;;;2.20;2.00;;;;;;;30.79;48.82;100085.47;10331737;28;20177;-61
2023/08/18 11:07:58;;;;;;;;;;;;;;;30.88;48.14;100078.41;10308702;28;20738;-59
2023/08/18 11:12:59;;;;;;;3.25;2.17;;;;;;;30.93;48.11;100077.66;10316070;28;20500;-54
2023/08/18 11:18:01;;;;;;;3.25;2.00;;;;;;;31.22;47.19;100075.38;10335186;28;20459;-54
2023/08/18 11:23:03;;;;;;;2.38;1.98;;;;;;;31.44;46.59;100072.50;10332389;28;20494;-55
2023/08/18 11:28:05;;;;;;;2.92;1.83;;;;;;;31.60;44.01;100064.34;10334355;28;20050;-55
2023/08/18 11:33:06;;;;;;;;;;;;;;;31.71;44.32;100069.63;10334454;28;20398;-55
2023/08/18 11:38:08;;;;;;;2.13;1.57;;;;;;;31.85;43.93;100072.69;10332969;28;20511;-54
2023/08/18 11:43:10;;;;;;;5.13;2.20;;;;;;;32.01;43.96;100064.50;10331924;28;20545;-55
2023/08/18 11:48:13;;;;;;;3.83;2.30;;;;;;;32.17;40.87;100060.72;10316756;28;20060;-54
2023/08/18 11:53:24;;;;;;;3.90;1.73;;;;;;;32.11;42.30;100048.03;10332372;28;20053;-55
2023/08/18 11:58:25;;;;;;;3.90;1.90;;;;;;;32.36;39.55;100044.50;10317572;28;20065;-55
2023/08/18 12:03:28;;;;;;;2.55;1.48;;;;;;;32.32;40.62;100032.38;10326827;28;20053;-56
2023/08/18 12:08:30;;;;;;;5.85;1.55;;;;;;;32.50;40.89;100028.25;10314718;28;21624;-55
2023/08/18 12:13:33;;;;;;;;;;;;;;;32.54;39.94;99995.47;10332395;28;20058;-56
2023/08/18 12:18:34;;;;;;;3.83;2.45;;;;;;;32.91;40.85;100027.44;10319471;28;19936;-54
2023/08/18 12:23:37;;;;;;;3.35;1.67;;;;;;;32.99;40.31;100021.34;10319911;28;20090;-55
2023/08/18 12:28:38;;;;;;;3.20;2.08;;;;;;;33.02;38.46;100026.31;10311555;28;20106;-55
2023/08/18 12:33:40;;;;;;;2.65;1.52;;;;;;;32.93;38.68;100025.22;10329160;28;20054;-55
2023/08/18 12:38:41;;;;;;;3.60;1.80;;;;;;;33.05;39.52;100034.03;10332490;28;20053;-55
2023/08/18 12:43:42;;;;;;;4.57;1.80;;;;;;;33.09;39.60;100029.59;10328077;28;20046;-56
2023/08/18 12:48:44;;;;;;;2.80;1.40;;;;;;;33.00;40.56;100025.78;10333895;28;20041;-54
2023/08/18 12:53:45;;;;;;;1.95;1.35;;;;;;;33.10;38.52;100019.38;10332987;28;20660;-55
2023/08/18 12:58:47;;;;;;;;;;;;;;;33.09;38.26;100018.56;10332927;28;20532;-55
2023/08/18 13:03:48;;;;;;;3.45;1.88;;;;;;;32.93;39.56;100019.72;10313482;28;19921;-55
2023/08/18 13:08:52;;;;;;;;;;;;;;;32.85;39.51;100015.59;10337143;28;20110;-55
2023/08/18 13:13:54;;;;;;;3.75;1.92;;;;;;;32.78;39.92;100020.56;10334813;28;20055;-55
2023/08/18 13:18:55;;;;;;;2.58;1.58;;;;;;;32.70;39.44;100027.47;10322848;28;20055;-55
2023/08/18 13:23:57;;;;;;;3.05;1.90;;;;;;;32.57;39.54;100015.03;10321424;28;20097;-56
2023/08/18 13:28:58;;;;;;;3.13;1.77;;;;;;;32.57;40.76;100006.75;10340265;28;20112;-55
2023/08/18 13:34:00;;;;;;;3.17;1.80;;;;;;;32.52;40.61;100014.19;10319425;28;20057;-56
2023/08/18 13:39:01;;;;;;;4.63;1.90;;;;;;;32.48;40.47;100010.34;10340581;28;20767;-56
2023/08/18 13:44:03;;;;;;;2.17;1.42;;;;;;;32.36;41.15;100005.94;10331894;28;20060;-55
2023/08/18 13:49:05;;;;;;;;;;;;;;;32.33;41.05;100000.97;10342075;28;20433;-55
2023/08/18 13:54:09;;;;;;;;;;;;;;;32.23;40.72;100006.47;10345419;28;19939;-55
2023/08/18 13:59:13;;;;;;;3.35;1.60;;;;;;;32.12;41.68;99989.13;10327141;28;19995;-55
2023/08/18 14:04:15;;;;;;;;;;;;;;;32.03;40.53;99985.22;10338385;28;20046;-53
2023/08/18 14:09:18;;;;;;;3.30;1.70;;;;;;;31.86;42.04;99982.75;10340002;28;19925;-53
2023/08/18 14:14:20;;;;;;;2.25;1.95;;;;;;;31.84;42.17;99976.66;10345676;28;20083;-62
2023/08/18 14:19:21;;;;;;;3.20;1.58;;;;;;;31.77;42.24;99976.09;10319971;28;20599;-54
2023/08/18 14:24:23;;;;;;;;;;;;;;;31.72;41.75;99990.66;10338776;28;20050;-54
2023/08/18 14:29:24;;;;;;;4.10;1.97;;;;;;;31.57;42.29;99974.94;10337457;28;20248;-55
2023/08/18 14:34:26;;;;;;;2.97;1.88;;;;;;;31.50;42.53;99960.59;10327880;28;20164;-54
2023/08/18 14:39:27;;;;;;;2.53;1.60;;;;;;;31.32;42.73;99940.72;10335058;28;20106;-55
2023/08/18 14:44:29;;;;;;;2.65;1.73;;;;;;;31.38;43.43;99956.16;10342272;28;20137;-56
2023/08/18 14:49:31;;;;;;;3.55;1.90;;;;;;;31.29;43.51;99949.50;10338457;28;20096;-55
2023/08/18 14:54:34;;;;;;;2.42;1.50;;;;;;;31.23;43.56;99949.75;10337625;28;20065;-53
2023/08/18 14:59:36;;;;;;;2.47;1.60;;;;;;;31.15;42.44;99945.59;10306993;28;20064;-54
2023/08/18 15:04:38;;;;;;;2.58;1.55;;;;;;;31.08;42.75;99942.28;10331970;28;20124;-54
2023/08/18 15:09:39;;;;;;;3.03;1.30;;;;;;;31.02;42.48;99939.50;10319961;28;20045;-55
2023/08/18 15:14:41;;;;;;;3.25;1.67;;;;;;;30.97;42.72;99939.44;10331546;28;20549;-56
2023/08/18 15:19:43;;;;;;;2.25;1.60;;;;;;;30.89;42.99;99939.94;10330556;28;20187;-57
2023/08/18 15:24:44;;;;;;;3.97;1.77;;;;;;;30.83;43.19;99941.00;10332739;28;20844;-55
2023/08/18 15:29:46;;;;;;;3.17;1.70;;;;;;;30.79;43.50;99932.47;10330370;28;20295;-53
2023/08/18 15:34:49;;;;;;;2.72;2.13;;;;;;;30.77;43.45;99936.59;10316048;28;20096;-56
2023/08/18 15:39:52;;;;;;;5.47;1.80;;;;;;;30.72;43.46;99939.31;10336445;28;20845;-54
2023/08/18 15:44:53;;;;;;;2.85;1.90;;;;;;;30.65;43.52;99929.34;10334870;28;20052;-56
2023/08/18 15:49:55;;;;;;;1.80;1.60;;;;;;;30.67;43.50;99940.06;10330056;28;20136;-58
2023/08/18 15:54:56;;;;;;;2.60;1.45;;;;;;;30.58;42.18;99926.03;10330004;28;20115;-56
2023/08/18 15:59:58;;;;;;;3.38;1.58;;;;;;;30.57;42.02;99927.13;10330051;28;20826;-57
2023/08/18 16:05:00;;;;;;;3.53;1.65;;;;;;;30.62;41.90;99929.06;10310142;28;20211;-56
2023/08/18 16:10:01;;;;;;;3.65;2.05;;;;;;;30.62;41.30;99924.41;10326970;28;21580;-57
2023/08/18 16:15:03;;;;;;;;;;;;;;;30.58;40.70;99912.31;10312492;28;20707;-57
2023/08/18 16:20:09;;;;;;;2.20;1.52;;;;;;;30.51;41.97;99903.47;10315231;28;19925;-57
2023/08/18 16:25:11;;;;;;;2.92;1.80;;;;;;;30.56;42.70;99911.72;10327086;28;20064;-56
2023/08/18 16:30:13;;;;;;;2.88;1.30;;;;;;;30.46;42.49;99906.16;10321053;28;20152;-56
2023/08/18 16:35:15;;;;;;;4.88;1.80;;;;;;;30.46;43.12;99904.25;10331736;28;20076;-59
2023/08/18 16:40:16;;;;;;;2.83;2.00;;;;;;;30.43;43.64;99909.44;10318571;28;20058;-61
2023/08/18 16:45:18;;;;;;;2.97;1.70;;;;;;;30.43;43.68;99920.41;10330004;28;20061;-56
2023/08/18 16:50:19;;;;;;;4.90;2.10;;;;;;;30.42;42.88;99918.78;10331690;28;20587;-54
2023/08/18 16:55:20;;;;;;;1.60;1.33;;;;;;;30.37;43.34;99915.94;10319841;28;20163;-55
2023/08/18 17:00:22;;;;;;;2.33;1.33;;;;;;;30.28;43.49;99913.72;10321560;28;20730;-55
2023/08/18 17:05:23;;;;;;;2.78;1.80;;;;;;;30.28;43.07;99916.44;10335752;28;20652;-54
2023/08/18 17:10:25;;;;;;;2.65;1.58;;;;;;;30.25;43.82;99913.38;10335561;28;20088;-58
2023/08/18 17:15:28;;;;;;;1.63;1.50;;;;;;;30.21;43.91;99910.34;10320189;28;20055;-55
2023/08/18 17:20:30;;;;;;;2.30;1.52;;;;;;;30.20;43.83;99916.91;10338811;28;20072;-71
2023/08/18 17:25:34;;;;;;;3.75;1.90;;;;;;;30.16;43.52;99915.78;10340856;28;20053;-53
2023/08/18 17:30:36;;;;;;;2.80;1.75;;;;;;;30.12;43.52;99920.16;10318549;28;20049;-60
2023/08/18 17:35:38;;;;;;;3.97;1.90;;;;;;;30.07;43.35;99909.97;10334404;28;20576;-56
2023/08/18 17:40:41;;;;;;;;;;;;;;;30.03;42.98;99910.75;10337000;28;20593;-58
2023/08/18 17:45:44;;;;;;;4.03;1.63;;;;;;;29.97;43.56;99907.94;10339566;28;20682;-56
2023/08/18 17:50:47;;;;;;;3.00;1.83;;;;;;;29.92;44.07;99913.41;10334981;28;20486;-62
2023/08/18 17:55:49;;;;;;;1.88;1.20;;;;;;;29.88;44.13;99909.53;10332534;28;20058;-57
2023/08/18 18:00:51;;;;;;;2.43;1.83;;;;;;;29.76;45.00;99901.41;10333254;28;20088;-65
2023/08/18 18:05:53;;;;;;;3.53;2.05;;;;;;;29.67;45.62;99897.50;10315804;28;20090;-59
2023/08/18 18:10:55;;;;;;;2.13;1.80;;;;;;;29.70;45.67;99912.63;10331264;28;20061;-53
2023/08/18 18:15:56;;;;;;;2.55;2.10;;;;;;;29.61;46.42;99910.31;10334527;28;20466;-53
2023/08/18 18:20:58;;;;;;;4.33;3.03;;;;;;;29.51;47.57;99904.72;10314868;28;20189;-54
2023/08/18 18:25:59;;;;;;;2.40;2.17;;;;;;;29.48;47.93;99913.47;10331185;28;20304;-53
2023/08/18 18:31:01;;;;;;;3.60;2.17;;;;;;;29.38;48.79;99908.72;10333987;28;20053;-54
2023/08/18 18:36:04;;;;;;;4.37;2.87;;;;;;;29.34;49.54;99917.72;10330692;28;20075;-54
2023/08/18 18:41:05;;;;;;;4.85;3.22;;;;;;;29.24;50.01;99915.66;10333676;28;20060;-54
2023/08/18 18:46:07;;;;;;;4.10;3.70;;;;;;;29.15;50.67;99908.94;10334607;28;21506;-53
2023/08/18 18:51:10;;;;;;;3.97;3.40;;;;;;;29.10;51.24;99915.19;10330247;28;20853;-55
2023/08/18 18:56:12;;;;;;;5.40;3.78;;;;;;;29.04;51.68;99927.16;10327015;28;21028;-54
2023/08/18 19:01:13;;;;;;;4.70;3.60;;;;;;;28.87;52.11;99916.22;10331673;28;20136;-54
2023/08/18 19:06:15;;;;;;;5.13;3.33;;;;;;;28.86;52.47;99936.50;10330434;28;20049;-54
2023/08/18 19:11:17;;;;;;;;;;;;;;;28.79;53.01;99933.94;10330609;28;20711;-54
2023/08/18 19:16:20;;;;;;;4.70;2.90;;;;;;;28.72;52.98;99941.53;10333064;28;19925;-54
2023/08/18 19:21:22;;;;;;;3.17;2.83;;;;;;;28.63;53.18;99951.22;10327569;28;20171;-53
2023/08/18 19:26:29;;;;;;;3.70;2.80;;;;;;;28.55;53.50;99942.34;10330222;28;20050;-55
2023/08/18 19:31:30;;;;;;;4.80;2.75;;;;;;;28.49;53.98;99943.31;10326030;28;20187;-54
2023/08/18 19:36:32;;;;;;;4.73;2.47;;;;;;;28.40;53.98;99942.09;10329263;28;20061;-54
2023/08/18 19:41:33;;;;;;;3.97;2.63;;;;;;;28.28;53.91;99941.34;10324099;28;20123;-54
2023/08/18 19:46:35;;;;;;;3.63;3.30;;;;;;;28.27;54.07;99947.88;10332126;28;20072;-54
2023/08/18 19:51:36;;;;;;;3.83;2.07;;;;;;;28.23;54.21;99952.22;10330601;28;20060;-54
2023/08/18 19:56:38;;;;;;;4.97;2.65;;;;;;;28.14;54.46;99940.84;10328611;28;20060;-54
2023/08/18 20:01:39;;;;;;;4.93;2.30;;;;;;;28.09;54.68;99954.41;10317839;28;20465;-53
2023/08/18 20:06:41;;;;;;;3.60;2.50;;;;;;;28.04;54.63;99964.22;10317262;28;20056;-53
2023/08/18 20:11:42;;;;;;;4.50;2.70;;;;;;;27.98;54.94;99953.41;10298623;28;20176;-53
2023/08/18 20:16:44;;;;;;;2.70;2.43;;;;;;;27.89;55.41;99957.59;10317849;28;20195;-55
2023/08/18 20:21:46;;;;;;;2.53;2.10;;;;;;;27.82;55.85;99955.84;10314776;28;20053;-53
2023/08/18 20:26:48;;;;;;;3.17;1.85;;;;;;;27.76;56.06;99954.09;10325228;28;20134;-53
2023/08/18 20:31:49;;;;;;;5.90;2.85;;;;;;;27.68;56.52;99960.78;10326858;28;20362;-53
2023/08/18 20:36:51;;;;;;;2.70;2.22;;;;;;;27.61;56.89;99964.72;10324896;28;20578;-54
2023/08/18 20:41:52;;;;;;;3.90;2.22;;;;;;;27.56;56.82;99972.81;10328584;28;20194;-55
2023/08/18 20:46:53;;;;;;;4.13;2.08;;;;;;;27.47;56.78;99970.50;10324766;28;20938;-55
2023/08/18 20:51:55;;;;;;;4.85;2.50;;;;;;;27.39;56.75;99962.66;10334109;28;20377;-54
2023/08/18 20:56:57;;;;;;;4.70;2.40;;;;;;;27.32;57.37;99961.91;10347506;28;20054;-55
2023/08/18 21:01:58;;;;;;;3.33;1.90;;;;;;;27.28;57.76;99966.22;10339425;28;20068;-56
2023/08/18 21:07:00;;;;;;;3.60;2.80;;;;;;;27.22;57.69;99973.47;10326442;28;20739;-54
2023/08/18 21:12:02;;;;;;;3.67;2.50;;;;;;;27.15;58.24;99979.06;10335650;28;20041;-54
2023/08/18 21:17:03;;;;;;;3.97;2.00;;;;;;;27.08;58.77;99981.13;10322755;28;20645;-54
2023/08/18 21:22:05;;;;;;;4.10;2.05;;;;;;;27.03;58.83;99975.50;10331687;28;20038;-53
2023/08/18 21:27:07;;;;;;;3.92;2.38;;;;;;;26.99;59.21;99986.09;10335710;28;21124;-53
2023/08/18 21:32:08;;;;;;;3.78;2.58;;;;;;;26.94;59.78;99983.22;10336708;28;20064;-54
2023/08/18 21:37:10;;;;;;;3.70;2.37;;;;;;;26.89;59.90;99979.56;10336043;28;20728;-54
2023/08/18 21:42:11;;;;;;;3.67;2.15;;;;;;;26.76;59.96;99970.53;10336496;28;20064;-54
2023/08/18 21:47:13;;;;;;;2.97;2.35;;;;;;;26.71;60.29;99970.44;10346793;28;20053;-55
2023/08/18 21:52:15;;;;;;;3.67;2.38;;;;;;;26.66;60.25;99958.53;10345467;28;20715;-54
2023/08/18 21:57:16;;;;;;;3.97;2.70;;;;;;;26.69;60.40;99963.53;10327633;28;20061;-54
2023/08/18 22:02:18;;;;;;;3.35;2.25;;;;;;;26.63;60.51;99976.19;10345227;28;20057;-54
2023/08/18 22:07:19;;;;;;;2.88;2.53;;;;;;;26.54;60.83;99969.44;10349308;28;20046;-54
2023/08/18 22:12:21;;;;;;;3.72;2.35;;;;;;;26.52;60.23;99966.94;10332743;28;20076;-54
2023/08/18 22:17:22;;;;;;;3.55;2.25;;;;;;;26.41;60.46;99956.84;10344653;28;20060;-54
2023/08/18 22:22:23;;;;;;;3.63;2.75;;;;;;;26.44;60.88;99964.56;10347832;28;20123;-54
2023/08/18 22:27:35;;;;;;;3.03;2.72;;;;;;;26.41;61.04;99962.31;10335166;28;20073;-54
2023/08/18 22:32:37;;;;;;;3.88;2.08;;;;;;;26.37;60.74;99964.66;10347872;28;20148;-55
2023/08/18 22:37:42;;;;;;;2.57;2.20;;;;;;;26.31;61.24;99962.88;10332681;28;20057;-54
2023/08/18 22:42:45;;;;;;;5.00;1.98;;;;;;;26.28;61.38;99968.81;10345985;28;20050;-55
2023/08/18 22:47:47;;;;;;;3.28;2.45;;;;;;;26.20;61.91;99975.44;10332528;28;20619;-54
2023/08/18 22:52:49;;;;;;;3.22;2.25;;;;;;;26.16;61.12;99978.88;10344350;28;20068;-55
2023/08/18 22:57:50;;;;;;;2.97;1.45;;;;;;;26.14;61.68;99986.44;10341249;28;20057;-55
2023/08/18 23:02:52;;;;;;;5.65;2.30;;;;;;;26.10;61.64;99983.34;10341350;28;20085;-59
2023/08/18 23:07:54;;;;;;;4.20;1.93;;;;;;;26.05;61.55;99986.78;10346480;28;21023;-55
2023/08/18 23:12:55;;;;;;;2.53;1.93;;;;;;;26.04;61.26;99985.09;10340812;28;20493;-55
2023/08/18 23:17:57;;;;;;;2.50;2.00;;;;;;;25.86;61.70;99960.59;10344602;28;20300;-57
2023/08/18 23:22:58;;;;;;;2.60;1.60;;;;;;;25.89;61.14;99966.41;10341459;28;20107;-56